Time;durP1;ratioP1;P1;durP2;ratioP2;P2;SDS_P1;SDS_P2;PMS_P1;PMS_P2;Temp;Humidity;BMP_temperature;BMP_pressure;BME280_temperature;BME280_humidity;BME280_pressure;Samples;Min_cycle;Max_cycle;Signal;HPM_P1;HPM_P2
2021/08/22 00:00:25;;;;;;;14.07;12.97;;;21.10;99.90;;;;;;5034415;28;20420;-70
2021/08/22 00:02:50;;;;;;;13.73;12.37;;;21.10;99.90;;;;;;5035289;28;20409;-66
2021/08/22 00:05:16;;;;;;;13.20;12.17;;;21.00;99.90;;;;;;5034790;28;20210;-66
2021/08/22 00:07:42;;;;;;;13.27;12.27;;;21.00;99.90;;;;;;5045332;28;20364;-66
2021/08/22 00:10:08;;;;;;;13.83;12.37;;;21.00;99.90;;;;;;5054729;28;20224;-66
2021/08/22 00:12:34;;;;;;;12.90;11.80;;;21.00;99.90;;;;;;5050667;28;20181;-66
2021/08/22 00:14:59;;;;;;;13.20;12.20;;;21.00;99.90;;;;;;5034633;28;20429;-66
2021/08/22 00:17:25;;;;;;;12.60;11.60;;;21.00;99.90;;;;;;5034271;28;20174;-71
2021/08/22 00:19:51;;;;;;;12.90;11.80;;;21.00;99.90;;;;;;5035334;28;20676;-66
2021/08/22 00:22:16;;;;;;;12.87;11.87;;;21.00;99.90;;;;;;5034804;28;20535;-66
2021/08/22 00:24:42;;;;;;;12.70;11.70;;;21.00;99.90;;;;;;5034019;28;20692;-66
2021/08/22 00:27:08;;;;;;;13.30;12.30;;;20.90;99.90;;;;;;5034405;28;20283;-66
2021/08/22 00:29:34;;;;;;;12.40;11.50;;;20.90;99.90;;;;;;5033056;28;20177;-67
2021/08/22 00:31:59;;;;;;;13.17;12.07;;;20.90;99.90;;;;;;5034981;28;20175;-66
2021/08/22 00:34:25;;;;;;;13.77;12.67;;;20.90;99.90;;;;;;5034160;28;20405;-70
2021/08/22 00:36:51;;;;;;;12.50;11.60;;;20.90;99.90;;;;;;5046978;28;20178;-66
2021/08/22 00:39:16;;;;;;;12.57;11.57;;;20.80;99.90;;;;;;5036795;28;20644;-66
2021/08/22 00:41:42;;;;;;;13.70;12.60;;;20.80;99.90;;;;;;5051561;28;20213;-66
2021/08/22 00:44:08;;;;;;;12.83;11.73;;;20.80;99.90;;;;;;5053690;28;20623;-66
2021/08/22 00:46:37;;;;;;;12.20;11.20;;;20.90;99.90;;;;;;5053338;28;20466;-66
2021/08/22 00:49:05;;;;;;;12.07;11.20;;;20.80;99.90;;;;;;5052638;28;20181;-66
2021/08/22 00:51:31;;;;;;;11.10;10.30;;;20.80;99.90;;;;;;5052807;28;20780;-66
2021/08/22 00:53:57;;;;;;;11.10;10.30;;;20.80;99.90;;;;;;5036345;28;20412;-66
2021/08/22 00:56:23;;;;;;;10.83;10.00;;;20.80;99.90;;;;;;5054028;28;20452;-66
2021/08/22 00:58:48;;;;;;;10.63;9.73;;;20.80;99.90;;;;;;5053468;28;20535;-66
2021/08/22 01:01:25;;;;;;;10.00;9.20;;;20.80;99.90;;;;;;5054055;28;20227;-66
2021/08/22 01:04:17;;;;;;;9.00;8.40;;;20.80;99.90;;;;;;5053464;28;20170;-66
2021/08/22 01:06:54;;;;;;;9.43;8.73;;;20.80;99.90;;;;;;5036110;28;20474;-66
2021/08/22 01:09:27;;;;;;;8.93;8.03;;;20.80;99.90;;;;;;5053461;28;20770;-66
2021/08/22 01:11:58;;;;;;;9.20;8.60;;;20.80;99.90;;;;;;5053459;28;20397;-66
2021/08/22 01:14:29;;;;;;;9.33;8.43;;;20.80;99.90;;;;;;5040109;28;20425;-66
2021/08/22 01:16:58;;;;;;;8.53;7.90;;;20.80;99.90;;;;;;5033991;28;20904;-66
2021/08/22 01:19:49;;;;;;;8.80;8.20;;;20.80;99.90;;;;;;5033760;28;20405;-66
2021/08/22 01:22:18;;;;;;;9.80;9.00;;;20.80;99.90;;;;;;5033851;28;20405;-66
2021/08/22 01:24:45;;;;;;;9.40;8.80;;;20.90;99.90;;;;;;5032791;28;20411;-66
2021/08/22 01:27:13;;;;;;;9.07;8.37;;;20.90;99.90;;;;;;5033630;28;20536;-66
2021/08/22 01:29:45;;;;;;;8.57;8.00;;;20.90;99.90;;;;;;5033907;28;20429;-66
2021/08/22 01:32:13;;;;;;;9.60;8.70;;;20.90;99.90;;;;;;5052128;28;20466;-66
2021/08/22 01:34:41;;;;;;;9.50;8.80;;;20.90;99.90;;;;;;5052597;28;20412;-66
2021/08/22 01:37:07;;;;;;;9.20;8.50;;;20.90;99.90;;;;;;5053287;28;20405;-66
2021/08/22 01:39:35;;;;;;;8.90;8.27;;;20.90;99.90;;;;;;5051939;28;20428;-66
2021/08/22 01:42:01;;;;;;;9.37;8.57;;;20.90;99.90;;;;;;5053233;28;20444;-66
2021/08/22 01:44:27;;;;;;;8.80;8.20;;;20.90;99.90;;;;;;5044937;28;20452;-69
2021/08/22 01:46:53;;;;;;;8.60;8.00;;;20.90;99.90;;;;;;5032772;28;20484;-66
2021/08/22 01:49:20;;;;;;;8.90;8.30;;;20.90;99.90;;;;;;5015602;28;20901;-66
2021/08/22 01:51:46;;;;;;;9.50;8.60;;;20.90;99.90;;;;;;5032398;28;20174;-66
2021/08/22 01:54:12;;;;;;;7.90;7.40;;;20.90;99.90;;;;;;5033182;28;20500;-66
2021/08/22 01:56:39;;;;;;;7.70;7.17;;;21.00;99.90;;;;;;5032278;28;20508;-66
2021/08/22 01:59:06;;;;;;;8.20;7.70;;;20.90;99.90;;;;;;5033063;28;20253;-66
2021/08/22 02:01:34;;;;;;;7.90;7.20;;;20.90;99.90;;;;;;5037018;28;20507;-70
2021/08/22 02:04:29;;;;;;;7.80;7.30;;;20.90;99.90;;;;;;5033012;28;20402;-66
2021/08/22 02:07:12;;;;;;;7.90;7.40;;;20.90;99.90;;;;;;5032360;28;20455;-66
2021/08/22 02:10:02;;;;;;;8.40;7.80;;;20.90;99.90;;;;;;5032331;28;20484;-67
2021/08/22 02:12:29;;;;;;;8.73;8.13;;;20.90;99.90;;;;;;5032853;28;20394;-66
2021/08/22 02:15:02;;;;;;;9.03;8.23;;;20.90;99.90;;;;;;5032284;28;20417;-66
2021/08/22 02:17:36;;;;;;;9.00;8.40;;;20.90;99.90;;;;;;5033091;28;20465;-66
2021/08/22 02:20:05;;;;;;;7.93;7.43;;;21.00;99.90;;;;;;5033155;28;20478;-66
2021/08/22 02:22:32;;;;;;;8.90;8.30;;;20.90;99.90;;;;;;5031640;28;20786;-70
2021/08/22 02:24:59;;;;;;;8.40;7.80;;;20.90;99.90;;;;;;5032236;28;20813;-68
2021/08/22 02:27:29;;;;;;;7.87;7.27;;;20.90;99.90;;;;;;5033508;28;20465;-66
2021/08/22 02:29:55;;;;;;;8.20;7.60;;;20.90;99.90;;;;;;5031793;28;20417;-66
2021/08/22 02:32:23;;;;;;;8.10;7.40;;;20.90;99.90;;;;;;5033232;28;20420;-66
2021/08/22 02:34:52;;;;;;;7.93;7.40;;;20.90;99.90;;;;;;5031583;28;20478;-66
2021/08/22 02:37:18;;;;;;;8.10;7.50;;;20.90;99.90;;;;;;5032574;28;20486;-66
2021/08/22 02:39:47;;;;;;;7.60;7.03;;;20.80;99.90;;;;;;5031537;28;20790;-66
2021/08/22 02:42:13;;;;;;;7.90;7.40;;;20.80;99.90;;;;;;5032401;28;20444;-66
2021/08/22 02:44:39;;;;;;;8.20;7.60;;;20.80;99.90;;;;;;5031239;28;20883;-66
2021/08/22 02:47:05;;;;;;;8.20;7.70;;;20.80;99.90;;;;;;5031937;28;20504;-66
2021/08/22 02:49:30;;;;;;;8.47;7.87;;;20.80;99.90;;;;;;5014527;28;20205;-68
2021/08/22 02:51:56;;;;;;;8.10;7.50;;;20.80;99.90;;;;;;5046043;28;20178;-66
2021/08/22 02:54:22;;;;;;;7.90;7.40;;;20.80;99.90;;;;;;5051715;28;20189;-66
2021/08/22 02:56:48;;;;;;;7.63;7.13;;;20.80;99.90;;;;;;5051246;28;20232;-66
2021/08/22 02:59:13;;;;;;;7.53;7.00;;;20.70;99.90;;;;;;5047767;28;20205;-66
2021/08/22 03:01:39;;;;;;;7.03;6.53;;;20.70;99.90;;;;;;5038285;28;20265;-67
2021/08/22 03:04:05;;;;;;;6.83;6.40;;;20.70;99.90;;;;;;5031684;28;20174;-66
2021/08/22 03:06:31;;;;;;;7.80;7.30;;;20.70;99.90;;;;;;5032039;28;20237;-66
2021/08/22 03:08:57;;;;;;;6.50;6.00;;;20.70;99.90;;;;;;5031680;28;20499;-66
2021/08/22 03:11:22;;;;;;;7.37;6.87;;;20.60;99.90;;;;;;5031967;28;20174;-66
2021/08/22 03:13:49;;;;;;;6.33;5.93;;;20.60;99.90;;;;;;5031178;28;20212;-66
2021/08/22 03:16:15;;;;;;;7.00;6.50;;;20.60;99.90;;;;;;5032009;28;20537;-66
2021/08/22 03:18:41;;;;;;;6.70;6.17;;;20.60;99.90;;;;;;5032744;28;20915;-66
2021/08/22 03:21:07;;;;;;;7.30;6.70;;;20.60;99.90;;;;;;5051824;28;20405;-66
2021/08/22 03:23:33;;;;;;;6.73;6.30;;;20.50;99.90;;;;;;5051443;28;20182;-71
2021/08/22 03:25:59;;;;;;;6.40;6.00;;;20.60;99.90;;;;;;5050743;28;20219;-66
2021/08/22 03:28:26;;;;;;;6.50;6.10;;;20.50;99.90;;;;;;5051763;28;20943;-66
2021/08/22 03:30:53;;;;;;;6.63;6.23;;;20.50;99.90;;;;;;5048447;28;20173;-66
2021/08/22 03:33:19;;;;;;;6.63;6.17;;;20.50;99.90;;;;;;5028142;28;20427;-66
2021/08/22 03:35:46;;;;;;;6.90;6.50;;;20.50;99.90;;;;;;5050630;28;20399;-66
2021/08/22 03:38:11;;;;;;;6.80;6.40;;;20.50;99.90;;;;;;5051387;28;20400;-66
2021/08/22 03:40:37;;;;;;;6.77;6.27;;;20.50;99.90;;;;;;5051105;28;20774;-70
2021/08/22 03:43:03;;;;;;;6.50;6.10;;;20.50;99.90;;;;;;5050012;28;20208;-66
2021/08/22 03:45:29;;;;;;;6.80;6.30;;;20.50;99.90;;;;;;5031572;28;20233;-66
2021/08/22 03:47:54;;;;;;;6.90;6.40;;;20.50;99.90;;;;;;5040421;28;20269;-66
2021/08/22 03:50:20;;;;;;;7.10;6.60;;;20.60;99.90;;;;;;5049894;28;20638;-66
2021/08/22 03:52:48;;;;;;;8.83;8.13;;;20.60;99.90;;;;;;5050684;28;20334;-66
2021/08/22 03:55:14;;;;;;;9.93;9.23;;;20.60;99.90;;;;;;5051376;28;20515;-66
2021/08/22 03:57:40;;;;;;;11.73;10.83;;;20.60;99.90;;;;;;5050444;28;20411;-67
2021/08/22 04:00:07;;;;;;;12.33;11.33;;;20.60;99.90;;;;;;5051124;28;20424;-66
2021/08/22 04:02:33;;;;;;;13.43;12.33;;;20.50;99.90;;;;;;5051505;28;20411;-66
2021/08/22 04:05:03;;;;;;;14.57;13.27;;;20.50;99.90;;;;;;5051777;28;21280;-66
2021/08/22 04:07:29;;;;;;;17.63;16.23;;;20.50;99.90;;;;;;5055173;28;20205;-66
2021/08/22 04:09:55;;;;;;;16.50;15.00;;;20.50;99.90;;;;;;5054271;28;20479;-66
2021/08/22 04:12:21;;;;;;;17.13;15.57;;;20.50;99.90;;;;;;5053302;28;20421;-66
2021/08/22 04:14:47;;;;;;;15.80;14.40;;;20.50;99.90;;;;;;5042876;28;20454;-67
2021/08/22 04:17:13;;;;;;;19.43;17.53;;;20.50;99.90;;;;;;5053532;28;20273;-66
2021/08/22 04:19:41;;;;;;;18.73;17.23;;;20.50;99.90;;;;;;5053603;28;20174;-71
2021/08/22 04:22:07;;;;;;;18.80;17.10;;;20.50;99.90;;;;;;5054830;28;20404;-66
2021/08/22 04:24:35;;;;;;;17.00;15.50;;;20.50;99.90;;;;;;5054799;28;20466;-66
2021/08/22 04:27:04;;;;;;;20.13;18.33;;;20.50;99.90;;;;;;5051999;28;21035;-67
2021/08/22 04:29:32;;;;;;;19.63;17.77;;;20.50;99.90;;;;;;5054430;28;20442;-67
2021/08/22 04:31:58;;;;;;;19.23;17.53;;;20.50;99.90;;;;;;5018609;28;20861;-66
2021/08/22 04:34:23;;;;;;;19.57;17.67;;;20.50;99.90;;;;;;5034675;28;20412;-66
2021/08/22 04:36:49;;;;;;;17.77;16.30;;;20.50;99.90;;;;;;5033824;28;20178;-66
2021/08/22 04:39:16;;;;;;;18.33;16.77;;;20.50;99.90;;;;;;5039287;28;20606;-66
2021/08/22 04:41:45;;;;;;;18.27;16.77;;;20.50;99.90;;;;;;5051450;28;20188;-67
2021/08/22 04:44:12;;;;;;;18.33;16.77;;;20.60;99.90;;;;;;5054390;28;20455;-66
2021/08/22 04:46:38;;;;;;;18.20;16.60;;;20.60;99.90;;;;;;5040772;28;20468;-73
2021/08/22 04:49:04;;;;;;;18.13;16.53;;;20.60;99.90;;;;;;5034779;28;20429;-66
2021/08/22 04:51:29;;;;;;;16.73;15.27;;;20.60;99.90;;;;;;5034712;28;20796;-66
2021/08/22 04:53:56;;;;;;;18.77;17.20;;;20.60;99.90;;;;;;5034123;28;20167;-66
2021/08/22 04:56:23;;;;;;;17.50;15.80;;;20.60;99.90;;;;;;5016830;28;20421;-66
2021/08/22 04:58:49;;;;;;;15.80;14.50;;;20.60;99.90;;;;;;5047292;28;20924;-66
2021/08/22 05:01:15;;;;;;;17.40;15.90;;;20.60;99.90;;;;;;5054521;28;20479;-66
2021/08/22 05:03:41;;;;;;;18.27;16.23;;;20.60;99.90;;;;;;5053853;28;20511;-67
2021/08/22 05:06:11;;;;;;;15.90;14.60;;;20.60;99.90;;;;;;5054328;28;20239;-66
2021/08/22 05:08:37;;;;;;;16.57;15.27;;;20.60;99.90;;;;;;5054346;28;20413;-66
2021/08/22 05:11:04;;;;;;;16.70;15.20;;;20.60;99.90;;;;;;5054017;28;20400;-66
2021/08/22 05:13:30;;;;;;;15.50;14.30;;;20.60;99.90;;;;;;5054062;28;20408;-66
2021/08/22 05:15:55;;;;;;;15.37;14.17;;;20.60;99.90;;;;;;5053257;28;20913;-66
2021/08/22 05:18:23;;;;;;;15.27;14.07;;;20.60;99.90;;;;;;5053729;28;20225;-67
2021/08/22 05:20:49;;;;;;;14.90;13.80;;;20.50;99.90;;;;;;5033546;28;20597;-66
2021/08/22 05:23:16;;;;;;;15.10;14.00;;;20.60;99.90;;;;;;5033880;28;20898;-66
2021/08/22 05:25:41;;;;;;;14.13;13.03;;;20.60;99.90;;;;;;5033355;28;20456;-66
2021/08/22 05:28:07;;;;;;;14.50;13.30;;;20.60;99.90;;;;;;5045838;28;20422;-66
2021/08/22 05:30:33;;;;;;;15.20;14.03;;;20.60;99.90;;;;;;5034375;28;20179;-66
2021/08/22 05:32:58;;;;;;;14.70;13.70;;;20.60;99.90;;;;;;5042567;28;20178;-66
2021/08/22 05:35:24;;;;;;;13.23;12.33;;;20.60;99.90;;;;;;5053865;28;20178;-66
2021/08/22 05:37:50;;;;;;;12.87;11.77;;;20.60;99.90;;;;;;5053229;28;20169;-65
2021/08/22 05:40:15;;;;;;;13.83;12.73;;;20.60;99.90;;;;;;5053756;28;20176;-65
2021/08/22 05:42:41;;;;;;;13.60;12.40;;;20.70;99.90;;;;;;5035332;28;20637;-66
2021/08/22 05:45:07;;;;;;;14.00;12.90;;;20.70;99.90;;;;;;5053231;28;20278;-65
2021/08/22 05:47:33;;;;;;;14.03;12.90;;;20.70;99.90;;;;;;5053427;28;20266;-65
2021/08/22 05:49:59;;;;;;;13.80;12.80;;;20.70;99.90;;;;;;5052919;28;20797;-64
2021/08/22 05:52:24;;;;;;;16.10;14.87;;;20.70;99.90;;;;;;5053510;28;20170;-64
2021/08/22 05:54:50;;;;;;;15.47;14.17;;;20.70;99.90;;;;;;5052889;28;20176;-65
2021/08/22 05:57:16;;;;;;;15.03;13.83;;;20.60;99.90;;;;;;5035084;28;20178;-64
2021/08/22 05:59:42;;;;;;;16.03;14.73;;;20.70;99.90;;;;;;5035373;28;20619;-68
2021/08/22 06:02:07;;;;;;;15.80;14.40;;;20.70;99.90;;;;;;5053210;28;20173;-65
2021/08/22 06:04:33;;;;;;;14.80;13.70;;;20.70;99.90;;;;;;5052938;28;20458;-65
2021/08/22 06:06:59;;;;;;;13.60;12.60;;;20.80;99.90;;;;;;5052536;28;20560;-64
2021/08/22 06:09:24;;;;;;;13.80;12.63;;;20.80;99.90;;;;;;5053420;28;20186;-65
2021/08/22 06:11:50;;;;;;;12.50;11.40;;;20.80;99.90;;;;;;5052162;28;20178;-65
2021/08/22 06:14:16;;;;;;;12.10;11.00;;;20.80;99.90;;;;;;5052863;28;20248;-65
2021/08/22 06:16:42;;;;;;;12.33;11.33;;;20.80;99.90;;;;;;5053020;28;20416;-65
2021/08/22 06:19:08;;;;;;;12.40;11.40;;;20.80;99.90;;;;;;5052861;28;20701;-65
2021/08/22 06:21:34;;;;;;;11.83;10.80;;;20.80;99.90;;;;;;5052910;28;20495;-64
2021/08/22 06:24:00;;;;;;;12.07;11.07;;;20.80;99.90;;;;;;5052186;28;20255;-65
2021/08/22 06:26:27;;;;;;;11.50;10.60;;;20.80;99.90;;;;;;5052858;28;20205;-65
2021/08/22 06:28:54;;;;;;;11.87;10.87;;;20.80;99.90;;;;;;5042929;28;20439;-65
2021/08/22 06:31:20;;;;;;;11.80;10.90;;;20.90;99.90;;;;;;5032968;28;20413;-64
2021/08/22 06:33:45;;;;;;;11.90;10.97;;;20.90;99.90;;;;;;5027864;28;20451;-65
2021/08/22 06:36:12;;;;;;;12.40;11.50;;;20.90;99.90;;;;;;5052882;28;20440;-66
2021/08/22 06:38:38;;;;;;;12.73;11.67;;;20.90;99.90;;;;;;5045809;28;20181;-66
2021/08/22 06:41:04;;;;;;;12.20;11.20;;;20.90;99.90;;;;;;5043108;28;20401;-65
2021/08/22 06:43:30;;;;;;;12.70;11.70;;;20.90;99.90;;;;;;5032136;28;20393;-66
2021/08/22 06:45:56;;;;;;;13.00;12.00;;;20.90;99.90;;;;;;5031217;28;20472;-66
2021/08/22 06:48:23;;;;;;;12.50;11.40;;;20.90;99.90;;;;;;5032339;28;20202;-66
2021/08/22 06:50:49;;;;;;;12.93;11.93;;;20.90;99.90;;;;;;5034608;28;20540;-68
2021/08/22 06:53:15;;;;;;;12.03;11.10;;;20.90;99.90;;;;;;5046333;28;20458;-66
2021/08/22 06:55:41;;;;;;;14.30;11.00;;;20.90;99.90;;;;;;5052451;28;20420;-66
2021/08/22 06:58:07;;;;;;;13.43;12.13;;;21.00;99.90;;;;;;5043372;28;20570;-65
2021/08/22 07:00:33;;;;;;;13.00;11.90;;;21.20;99.90;;;;;;5033681;28;20401;-65
2021/08/22 07:02:59;;;;;;;11.90;11.00;;;21.30;99.90;;;;;;5011340;28;20421;-67
2021/08/22 07:05:25;;;;;;;12.90;11.70;;;21.50;99.90;;;;;;5034533;28;20455;-67
2021/08/22 07:07:52;;;;;;;11.67;10.67;;;21.60;99.90;;;;;;5051170;28;20221;-67
2021/08/22 07:10:17;;;;;;;13.27;11.97;;;21.70;99.90;;;;;;5043447;28;20443;-67
2021/08/22 07:12:43;;;;;;;12.93;11.73;;;21.80;99.90;;;;;;5032156;28;20404;-67
2021/08/22 07:15:12;;;;;;;12.33;11.40;;;21.90;99.90;;;;;;5030962;28;20782;-66
2021/08/22 07:17:37;;;;;;;11.73;10.73;;;22.00;99.90;;;;;;5032080;28;20179;-67
2021/08/22 07:20:04;;;;;;;11.83;10.83;;;22.00;99.90;;;;;;5031193;28;20575;-67
2021/08/22 07:22:30;;;;;;;12.30;11.30;;;22.10;99.90;;;;;;5036870;28;20197;-67
2021/08/22 07:24:58;;;;;;;14.77;13.53;;;22.10;99.90;;;;;;5031298;28;20422;-67
2021/08/22 07:27:24;;;;;;;13.40;12.30;;;22.20;99.90;;;;;;5031803;28;20689;-67
2021/08/22 07:29:50;;;;;;;14.87;13.57;;;22.30;99.90;;;;;;5013575;28;20428;-73
2021/08/22 07:32:16;;;;;;;12.63;11.60;;;22.30;99.90;;;;;;5031579;28;20409;-67
2021/08/22 07:34:42;;;;;;;16.00;14.30;;;22.30;99.90;;;;;;5046713;28;20184;-67
2021/08/22 07:37:07;;;;;;;16.93;15.13;;;22.40;99.90;;;;;;5051680;28;20178;-67
2021/08/22 07:39:33;;;;;;;99.10;79.33;;;22.30;99.90;;;;;;5054264;28;20392;-67
2021/08/22 07:41:59;;;;;;;26.07;23.50;;;22.30;99.90;;;;;;5053810;28;20181;-67
2021/08/22 07:44:25;;;;;;;33.27;27.53;;;22.30;99.90;;;;;;5055917;28;20209;-67
2021/08/22 07:46:51;;;;;;;24.73;22.27;;;22.30;99.90;;;;;;5055334;28;20459;-67
2021/08/22 07:49:19;;;;;;;24.80;22.30;;;22.30;99.90;;;;;;5055376;28;20202;-67
2021/08/22 07:51:45;;;;;;;33.00;29.57;;;22.30;99.90;;;;;;5055986;28;20170;-67
2021/08/22 07:54:11;;;;;;;28.27;25.43;;;22.30;99.90;;;;;;5055253;28;20434;-67
2021/08/22 07:56:40;;;;;;;30.47;27.17;;;22.30;99.90;;;;;;5055905;28;20400;-67
2021/08/22 07:59:06;;;;;;;26.87;24.27;;;22.30;99.90;;;;;;5055073;28;20519;-67
2021/08/22 08:01:32;;;;;;;27.90;25.07;;;22.30;99.90;;;;;;5055389;28;20400;-67
2021/08/22 08:03:57;;;;;;;26.90;24.10;;;22.30;99.90;;;;;;5053400;28;20754;-67
2021/08/22 08:06:23;;;;;;;19.40;17.50;;;22.40;99.90;;;;;;5055887;28;20288;-67
2021/08/22 08:08:49;;;;;;;14.37;13.10;;;22.30;99.90;;;;;;5048332;28;20170;-67
2021/08/22 08:11:14;;;;;;;14.53;13.23;;;22.30;99.90;;;;;;5044789;28;20235;-67
2021/08/22 08:13:41;;;;;;;19.80;17.73;;;22.30;99.90;;;;;;5055545;28;20491;-67
2021/08/22 08:16:06;;;;;;;16.57;15.17;;;22.30;99.90;;;;;;5038855;28;20191;-67
2021/08/22 08:18:33;;;;;;;16.43;15.07;;;22.30;99.90;;;;;;5017408;28;20492;-67
2021/08/22 08:20:59;;;;;;;14.17;12.87;;;22.30;99.90;;;;;;5034449;28;20297;-67
2021/08/22 08:23:25;;;;;;;24.40;21.87;;;22.20;99.90;;;;;;5035320;28;20851;-67
2021/08/22 08:25:52;;;;;;;110.57;94.63;;;22.20;99.90;;;;;;5034591;28;20540;-68
2021/08/22 08:28:19;;;;;;;18.73;16.93;;;22.10;99.90;;;;;;5038336;28;20174;-67
2021/08/22 08:30:45;;;;;;;15.57;14.20;;;22.10;99.90;;;;;;5021752;28;20760;-67
2021/08/22 08:33:10;;;;;;;13.30;12.07;;;22.20;99.90;;;;;;5045239;28;20432;-67
2021/08/22 08:35:36;;;;;;;13.43;12.27;;;22.10;99.90;;;;;;5038230;28;20267;-67
2021/08/22 08:38:02;;;;;;;14.33;13.10;;;22.00;99.90;;;;;;5042110;28;20185;-67
2021/08/22 08:40:28;;;;;;;12.97;11.90;;;21.90;99.90;;;;;;5054933;28;20166;-67
2021/08/22 08:42:55;;;;;;;13.73;12.60;;;21.90;99.90;;;;;;5043111;28;20178;-67
2021/08/22 08:45:51;;;;;;;15.93;14.53;;;21.90;99.90;;;;;;5034372;28;20609;-67
2021/08/22 08:48:30;;;;;;;18.17;16.43;;;22.00;99.90;;;;;;5046427;28;20428;-67
2021/08/22 08:51:19;;;;;;;14.43;13.23;;;22.10;99.90;;;;;;5053463;28;20388;-67
2021/08/22 08:54:05;;;;;;;13.50;12.20;;;22.20;99.90;;;;;;4997093;28;20448;-67
2021/08/22 08:56:47;;;;;;;11.10;10.17;;;22.10;99.90;;;;;;5040057;28;20503;-67
2021/08/22 08:59:13;;;;;;;11.00;10.20;;;22.10;99.90;;;;;;5034008;28;20398;-67
2021/08/22 09:01:39;;;;;;;9.80;9.00;;;22.10;99.90;;;;;;5034851;28;20421;-67
2021/08/22 09:04:11;;;;;;;9.10;8.40;;;22.10;99.90;;;;;;5034991;28;20202;-69
2021/08/22 09:07:05;;;;;;;10.00;9.10;;;22.00;99.90;;;;;;5045983;28;20852;-69
2021/08/22 09:09:55;;;;;;;9.53;8.70;;;22.00;99.90;;;;;;5054411;28;20491;-69
2021/08/22 09:12:44;;;;;;;9.13;8.43;;;21.90;99.90;;;;;;5054136;28;20758;-69
2021/08/22 09:15:44;;;;;;;9.10;8.37;;;21.90;99.90;;;;;;5053714;28;20772;-70
2021/08/22 09:18:47;;;;;;;9.57;8.67;;;21.90;99.90;;;;;;5033676;28;20428;-66
2021/08/22 09:21:50;;;;;;;8.23;7.63;;;21.70;99.90;;;;;;5033727;28;20417;-66
2021/08/22 09:24:31;;;;;;;9.57;8.70;;;21.70;99.90;;;;;;5033411;28;20400;-66
2021/08/22 09:27:27;;;;;;;8.67;7.97;;;21.60;99.90;;;;;;5033186;28;20979;-67
2021/08/22 09:30:23;;;;;;;9.07;8.37;;;21.60;99.90;;;;;;5034238;28;20398;-66
2021/08/22 09:33:26;;;;;;;9.90;9.10;;;21.60;99.90;;;;;;5033820;28;20927;-67
2021/08/22 09:36:17;;;;;;;10.40;9.67;;;21.60;99.90;;;;;;5034104;28;20405;-67
2021/08/22 09:39:20;;;;;;;12.03;11.00;;;21.60;99.90;;;;;;5033446;28;20413;-67
2021/08/22 09:42:04;;;;;;;12.57;11.20;;;21.60;99.90;;;;;;5033182;28;20401;-67
2021/08/22 09:44:51;;;;;;;32.43;27.60;;;21.70;99.90;;;;;;5032779;28;20441;-67
2021/08/22 09:47:50;;;;;;;24.83;22.33;;;21.70;99.90;;;;;;5033061;28;20950;-67
2021/08/22 09:50:52;;;;;;;11.50;10.50;;;21.80;99.90;;;;;;5033253;28;20397;-67
2021/08/22 09:53:43;;;;;;;12.00;11.10;;;21.80;99.90;;;;;;5033014;28;20421;-67
2021/08/22 09:56:34;;;;;;;12.30;11.30;;;21.90;99.90;;;;;;5015350;28;20443;-67
2021/08/22 09:59:03;;;;;;;12.53;11.47;;;21.90;99.90;;;;;;5049873;28;20820;-67
2021/08/22 10:01:40;;;;;;;12.73;11.70;;;22.00;99.90;;;;;;5052716;28;20574;-67
2021/08/22 10:04:24;;;;;;;13.80;12.60;;;21.90;99.90;;;;;;5052278;28;20427;-67
2021/08/22 10:07:17;;;;;;;14.50;13.30;;;22.00;99.90;;;;;;5053314;28;20872;-66
2021/08/22 10:10:04;;;;;;;14.50;13.10;;;21.90;99.90;;;;;;5053510;28;20487;-67
2021/08/22 10:12:30;;;;;;;13.73;12.63;;;21.90;99.90;;;;;;5053321;28;20495;-67
2021/08/22 10:14:56;;;;;;;14.83;13.53;;;22.00;99.90;;;;;;5053077;28;20557;-73
2021/08/22 10:17:24;;;;;;;13.63;12.63;;;21.90;99.90;;;;;;5050660;28;20194;-66
2021/08/22 10:19:50;;;;;;;56.00;49.20;;;21.60;99.90;;;;;;5033001;28;20475;-67
2021/08/22 10:22:31;;;;;;;13.43;12.33;;;21.70;99.90;;;;;;5014956;28;20401;-67
2021/08/22 10:25:01;;;;;;;13.20;12.10;;;21.70;99.90;;;;;;5044420;28;20412;-68
2021/08/22 10:27:29;;;;;;;12.80;11.90;;;21.70;99.90;;;;;;5035150;28;20436;-67
2021/08/22 10:30:01;;;;;;;11.77;10.87;;;21.80;99.90;;;;;;5052968;28;20462;-67
2021/08/22 10:32:28;;;;;;;11.63;10.83;;;21.90;99.90;;;;;;5053200;28;20768;-67
2021/08/22 10:35:12;;;;;;;12.87;11.87;;;21.90;99.90;;;;;;5038261;28;20932;-66
2021/08/22 10:37:39;;;;;;;12.90;12.00;;;21.90;99.90;;;;;;5032902;28;20427;-66
2021/08/22 10:40:23;;;;;;;16.33;12.53;;;22.00;99.90;;;;;;5032255;28;20451;-65
2021/08/22 10:43:09;;;;;;;13.00;12.00;;;21.90;99.90;;;;;;5032949;28;20431;-64
2021/08/22 10:45:47;;;;;;;11.93;11.03;;;22.00;99.90;;;;;;5046033;28;20499;-65
2021/08/22 10:48:22;;;;;;;13.07;11.93;;;22.10;99.90;;;;;;5052117;28;20428;-64
2021/08/22 10:50:56;;;;;;;13.17;12.07;;;22.10;99.90;;;;;;5052591;28;20477;-64
2021/08/22 10:53:38;;;;;;;11.63;10.73;;;22.10;99.90;;;;;;5059973;28;20423;-66
2021/08/22 10:56:25;;;;;;;12.97;11.97;;;22.10;99.90;;;;;;5059237;28;20410;-65
2021/08/22 10:59:00;;;;;;;42.63;38.20;;;22.00;99.90;;;;;;5060499;28;20909;-65
2021/08/22 11:01:36;;;;;;;23.23;21.20;;;22.00;99.90;;;;;;5059490;28;20505;-66
2021/08/22 11:04:10;;;;;;;14.23;13.23;;;22.10;99.90;;;;;;5061359;28;20408;-67
2021/08/22 11:06:51;;;;;;;12.73;11.73;;;22.10;99.90;;;;;;5058384;28;20516;-66
2021/08/22 11:09:36;;;;;;;12.80;11.90;;;22.20;99.90;;;;;;5071530;28;20440;-63
2021/08/22 11:12:02;;;;;;;13.10;12.17;;;22.20;99.90;;;;;;5064844;28;20741;-66
2021/08/22 11:14:28;;;;;;;12.30;11.20;;;22.20;99.90;;;;;;5061449;28;20420;-65
2021/08/22 11:16:58;;;;;;;10.90;10.20;;;22.20;99.90;;;;;;5056483;28;20412;-65
2021/08/22 11:19:24;;;;;;;13.07;12.03;;;22.10;99.90;;;;;;5056086;28;20633;-65
2021/08/22 11:21:50;;;;;;;11.30;10.53;;;22.10;99.90;;;;;;5056459;28;20423;-65
2021/08/22 11:24:16;;;;;;;11.53;10.77;;;22.10;99.90;;;;;;5062468;28;20165;-65
2021/08/22 11:26:42;;;;;;;10.13;9.40;;;22.20;99.90;;;;;;5061726;28;20201;-66
2021/08/22 11:29:08;;;;;;;10.80;10.10;;;22.10;99.90;;;;;;5057959;28;20416;-68
2021/08/22 11:31:35;;;;;;;11.03;10.23;;;22.10;99.90;;;;;;5063204;28;20262;-66
2021/08/22 11:34:14;;;;;;;9.97;9.17;;;22.20;99.90;;;;;;5075692;28;20426;-66
2021/08/22 11:36:41;;;;;;;9.90;9.20;;;22.30;99.90;;;;;;5067226;28;20419;-66
2021/08/22 11:39:18;;;;;;;10.37;9.53;;;22.30;99.50;;;;;;5062966;28;20899;-67
2021/08/22 11:41:50;;;;;;;9.43;8.80;;;22.30;99.80;;;;;;5057203;28;20431;-66
2021/08/22 11:44:22;;;;;;;8.60;8.00;;;22.30;99.90;;;;;;5060560;28;20445;-65
2021/08/22 11:46:53;;;;;;;9.07;8.47;;;22.20;99.70;;;;;;5064296;28;20463;-67
2021/08/22 11:49:20;;;;;;;9.43;8.83;;;22.20;99.00;;;;;;5058126;28;20713;-66
2021/08/22 11:51:51;;;;;;;9.00;8.30;;;22.10;99.00;;;;;;5055649;28;20487;-65
2021/08/22 11:54:18;;;;;;;7.83;7.33;;;22.10;98.60;;;;;;5054362;28;20462;-65
2021/08/22 11:56:44;;;;;;;8.97;8.30;;;22.10;99.00;;;;;;5059338;28;20427;-68
2021/08/22 11:59:42;;;;;;;7.37;6.87;;;22.10;98.80;;;;;;5070106;28;20783;-67
2021/08/22 12:02:20;;;;;;;7.60;7.10;;;22.00;98.90;;;;;;5020644;28;20193;-66
2021/08/22 12:05:15;;;;;;;6.57;6.07;;;22.00;99.10;;;;;;5055406;28;20495;-66
2021/08/22 12:07:45;;;;;;;7.97;7.33;;;22.10;99.10;;;;;;5055224;28;20966;-66
2021/08/22 12:10:25;;;;;;;7.83;7.23;;;22.10;99.30;;;;;;5054383;28;20415;-66
2021/08/22 12:12:52;;;;;;;8.67;7.97;;;22.30;99.90;;;;;;5037617;28;20896;-66
2021/08/22 12:15:19;;;;;;;8.07;7.13;;;22.50;99.90;;;;;;5053921;28;20424;-66
2021/08/22 12:17:45;;;;;;;8.27;7.67;;;22.80;99.90;;;;;;5053892;28;20420;-66
2021/08/22 12:20:19;;;;;;;7.67;7.10;;;23.00;99.70;;;;;;5053870;28;20781;-67
2021/08/22 12:23:03;;;;;;;6.60;6.13;;;23.30;98.40;;;;;;5054445;28;20776;-66
2021/08/22 12:25:30;;;;;;;6.50;6.10;;;23.50;96.40;;;;;;5053478;28;20393;-67
2021/08/22 12:28:33;;;;;;;6.57;6.10;;;23.60;95.30;;;;;;5068544;28;20419;-66
2021/08/22 12:31:04;;;;;;;6.83;5.80;;;23.80;95.30;;;;;;5063188;28;20469;-66
2021/08/22 12:33:41;;;;;;;6.50;6.00;;;24.10;95.60;;;;;;5054998;28;20495;-66
2021/08/22 12:36:12;;;;;;;8.13;6.57;;;24.20;94.90;;;;;;5053741;28;20412;-73
2021/08/22 12:38:41;;;;;;;6.10;5.70;;;24.30;95.00;;;;;;5070466;28;20419;-67
2021/08/22 12:41:27;;;;;;;16.57;15.00;;;24.30;94.40;;;;;;5055319;28;20445;-66
2021/08/22 12:43:55;;;;;;;30.00;26.80;;;24.40;93.30;;;;;;5065400;28;20528;-66
2021/08/22 12:46:25;;;;;;;13.33;12.20;;;24.50;92.40;;;;;;5054151;28;20588;-67
2021/08/22 12:48:52;;;;;;;7.60;7.00;;;24.50;93.20;;;;;;5054752;28;20904;-66